createdAt,value
2023-05-13T00:00:25.365Z,90.66
2023-05-13T00:01:26.516Z,90.86
2023-05-13T00:02:25.755Z,90.97
2023-05-13T00:03:26.136Z,90.86
2023-05-13T00:04:25.146Z,90.86
2023-05-13T00:05:26.356Z,90.97
2023-05-13T00:06:26.603Z,91.17
2023-05-13T00:07:25.642Z,91.38
2023-05-13T00:08:24.901Z,91.48
2023-05-13T00:09:26.050Z,91.52
2023-05-13T00:10:26.253Z,91.42
2023-05-13T00:11:25.460Z,91.52
2023-05-13T00:12:25.675Z,91.52
2023-05-13T00:13:25.822Z,91.58
2023-05-13T00:14:25.055Z,91.68
2023-05-13T00:15:26.203Z,91.68
2023-05-13T00:16:25.489Z,91.68
2023-05-13T00:17:25.607Z,91.68
2023-05-13T00:18:24.855Z,91.68
2023-05-13T00:19:25.054Z,91.68
2023-05-13T00:20:25.259Z,91.58
2023-05-13T00:21:25.426Z,91.58
2023-05-13T00:22:25.586Z,91.48
2023-05-13T00:23:25.762Z,91.27
2023-05-13T00:24:25.161Z,90.86
2023-05-13T00:25:26.218Z,90.77
2023-05-13T00:26:24.420Z,90.66
2023-05-13T00:27:25.585Z,90.56
2023-05-13T00:28:24.829Z,90.52
2023-05-13T00:29:26.019Z,90.42
2023-05-13T00:30:26.323Z,90.31
2023-05-13T00:31:25.493Z,90.42
2023-05-13T00:32:25.648Z,90.52
2023-05-13T00:33:24.880Z,90.42
2023-05-13T00:34:25.078Z,90.42
2023-05-13T00:35:26.293Z,90.46
2023-05-13T00:36:25.408Z,90.46
2023-05-13T00:37:25.609Z,90.46
2023-05-13T00:38:25.805Z,90.77
2023-05-13T00:39:26.006Z,90.97
2023-05-13T00:40:25.203Z,91.07
2023-05-13T00:41:25.469Z,91.17
2023-05-13T00:42:24.603Z,91.07
2023-05-13T00:43:25.875Z,91.17
2023-05-13T00:44:25.082Z,91.27
2023-05-13T00:45:24.195Z,91.27
2023-05-13T00:46:24.536Z,91.38
2023-05-13T00:47:25.651Z,91.48
2023-05-13T00:48:24.792Z,91.48
2023-05-13T00:49:25.038Z,91.48
2023-05-13T00:50:25.155Z,91.52
2023-05-13T00:51:24.393Z,91.52
2023-05-13T00:52:24.559Z,91.62
2023-05-13T00:53:25.793Z,91.72
2023-05-13T00:54:24.940Z,91.72
2023-05-13T00:55:24.122Z,91.72
2023-05-13T00:56:24.273Z,91.72
2023-05-13T00:57:24.528Z,91.72
2023-05-13T00:58:25.637Z,91.72
2023-05-13T00:59:24.944Z,91.72
2023-05-13T01:00:25.060Z,91.58
2023-05-13T01:01:24.326Z,91.38
2023-05-13T01:02:25.496Z,91.27
2023-05-13T01:03:25.621Z,91.17
2023-05-13T01:04:24.840Z,91.17
2023-05-13T01:05:24.031Z,91.07
2023-05-13T01:06:25.176Z,90.97
2023-05-13T01:07:24.433Z,90.86
2023-05-13T01:08:24.603Z,90.86
2023-05-13T01:09:25.726Z,90.86
2023-05-13T01:10:24.884Z,91.07
2023-05-13T01:11:25.112Z,91.07
2023-05-13T01:12:25.311Z,90.97
2023-05-13T01:13:25.486Z,91.01
2023-05-13T01:14:25.745Z,91.01
2023-05-13T01:15:24.923Z,91.01
2023-05-13T01:16:24.179Z,91.22
2023-05-13T01:17:25.675Z,91.22
2023-05-13T01:18:24.575Z,91.31
2023-05-13T01:19:24.646Z,91.31
2023-05-13T01:20:24.884Z,91.31
2023-05-13T01:21:24.077Z,91.46
2023-05-13T01:22:24.279Z,91.46
2023-05-13T01:23:25.462Z,91.46
2023-05-13T01:24:23.655Z,91.46
2023-05-13T01:25:23.858Z,91.56
2023-05-13T01:26:24.024Z,91.77
2023-05-13T01:27:25.218Z,91.66
2023-05-13T01:28:25.388Z,91.66
2023-05-13T01:29:23.666Z,91.71
2023-05-13T01:30:24.842Z,91.81
2023-05-13T01:31:25.054Z,91.81
2023-05-13T01:32:25.201Z,91.91
2023-05-13T01:33:24.446Z,91.91
2023-05-13T01:34:24.571Z,91.91
2023-05-13T01:35:24.920Z,92.01
2023-05-13T01:36:24.063Z,92.01
2023-05-13T01:37:24.273Z,91.91
2023-05-13T01:38:23.422Z,91.81
2023-05-13T01:39:23.634Z,91.81
2023-05-13T01:41:25.083Z,91.81
2023-05-13T01:42:25.159Z,91.81
2023-05-13T01:43:23.405Z,91.81
2023-05-13T01:44:23.568Z,91.81
2023-05-13T01:45:24.742Z,91.81
2023-05-13T01:46:25.028Z,92.01
2023-05-13T01:47:24.304Z,92.42
2023-05-13T01:48:23.415Z,92.63
2023-05-13T01:49:23.599Z,92.63
2023-05-13T01:50:24.148Z,92.63
2023-05-13T01:51:24.047Z,92.63
2023-05-13T01:52:24.262Z,92.63
2023-05-13T01:53:24.394Z,92.52
2023-05-13T01:54:24.535Z,92.42
2023-05-13T01:55:24.812Z,92.32
2023-05-13T01:56:24.984Z,92.22
2023-05-13T01:57:23.213Z,92.11
2023-05-13T01:58:23.457Z,92.22
2023-05-13T01:59:23.621Z,92.16
2023-05-13T02:00:23.932Z,92.26
2023-05-13T02:01:24.081Z,92.36
2023-05-13T02:02:23.227Z,92.36
2023-05-13T02:03:23.481Z,92.36
2023-05-13T02:04:24.977Z,92.36
2023-05-13T02:05:23.799Z,92.36
2023-05-13T02:06:24.004Z,92.36
2023-05-13T02:07:23.184Z,92.26
2023-05-13T02:08:23.375Z,92.26
2023-05-13T02:09:23.571Z,92.16
2023-05-13T02:10:24.060Z,92.05
2023-05-13T02:11:24.962Z,92.05
2023-05-13T02:12:23.130Z,92.16
2023-05-13T02:13:23.333Z,92.26
2023-05-13T02:14:23.514Z,92.26
2023-05-13T02:15:24.652Z,92.30
2023-05-13T02:16:24.075Z,92.41
2023-05-13T02:17:23.123Z,92.41
2023-05-13T02:18:23.297Z,92.50
2023-05-13T02:19:23.482Z,92.50
2023-05-13T02:20:23.892Z,92.50
2023-05-13T02:21:24.794Z,92.71
2023-05-13T02:22:23.228Z,92.81
2023-05-13T02:23:24.191Z,93.02
2023-05-13T02:24:23.371Z,93.02
2023-05-13T02:25:23.587Z,93.12
2023-05-13T02:26:24.737Z,92.91
2023-05-13T02:27:22.962Z,92.91
2023-05-13T02:28:23.182Z,92.91
2023-05-13T02:29:23.360Z,92.91
2023-05-13T02:30:23.710Z,93.12
2023-05-13T02:31:22.750Z,93.12
2023-05-13T02:32:22.909Z,93.12
2023-05-13T02:33:23.085Z,93.12
2023-05-13T02:34:23.380Z,93.12
2023-05-13T02:35:23.504Z,93.16
2023-05-13T02:36:22.650Z,93.26
2023-05-13T02:37:23.803Z,93.37
2023-05-13T02:38:24.037Z,93.37
2023-05-13T02:39:23.282Z,93.47
2023-05-13T02:40:23.690Z,93.57
2023-05-13T02:41:22.658Z,93.57
2023-05-13T02:42:23.851Z,93.67
2023-05-13T02:43:23.114Z,93.67
2023-05-13T02:44:23.313Z,93.67
2023-05-13T02:45:23.506Z,93.67
2023-05-13T02:46:22.783Z,93.77
2023-05-13T02:47:23.923Z,93.88
2023-05-13T02:48:24.058Z,93.98
2023-05-13T02:49:23.301Z,94.08
2023-05-13T02:50:23.659Z,94.08
2023-05-13T02:51:22.645Z,94.08
2023-05-13T02:52:23.817Z,94.08
2023-05-13T02:53:24.018Z,94.18
2023-05-13T02:54:23.231Z,94.29
2023-05-13T02:55:23.470Z,94.29
2023-05-13T02:56:22.599Z,94.43
2023-05-13T02:57:23.762Z,94.53
2023-05-13T02:58:23.031Z,94.64
2023-05-13T02:59:23.263Z,94.84
2023-05-13T03:00:22.628Z,94.84
2023-05-13T03:01:23.584Z,94.94
2023-05-13T03:02:23.805Z,94.84
2023-05-13T03:03:23.091Z,94.74
2023-05-13T03:04:23.226Z,94.94
2023-05-13T03:05:22.369Z,95.09
2023-05-13T03:06:22.578Z,95.39
2023-05-13T03:07:23.773Z,95.70
2023-05-13T03:08:23.028Z,95.90
2023-05-13T03:09:23.284Z,96.15
2023-05-13T03:10:22.663Z,96.36
2023-05-13T03:11:23.556Z,96.46
2023-05-13T03:12:23.762Z,96.46
2023-05-13T03:13:23.042Z,96.46
2023-05-13T03:14:22.194Z,96.46
2023-05-13T03:15:22.499Z,96.36
2023-05-13T03:16:23.660Z,96.26
2023-05-13T03:17:22.882Z,96.30
2023-05-13T03:18:24.101Z,96.36
2023-05-13T03:19:22.252Z,96.36
2023-05-13T03:20:23.668Z,96.26
2023-05-13T03:21:23.713Z,96.05
2023-05-13T03:22:23.871Z,95.85
2023-05-13T03:23:22.089Z,95.85
2023-05-13T03:24:23.260Z,95.85
2023-05-13T03:25:22.506Z,95.64
2023-05-13T03:26:22.708Z,95.54
2023-05-13T03:27:23.990Z,95.54
2023-05-13T03:28:22.130Z,95.54
2023-05-13T03:29:22.333Z,95.54
2023-05-13T03:30:22.833Z,95.54
2023-05-13T03:31:22.838Z,95.54
2023-05-13T03:32:21.951Z,95.44
2023-05-13T03:33:22.200Z,95.54
2023-05-13T03:34:22.459Z,95.44
2023-05-13T03:35:23.536Z,95.44
2023-05-13T03:36:23.727Z,95.44
2023-05-13T03:37:21.949Z,95.44
2023-05-13T03:38:22.158Z,95.54
2023-05-13T03:39:23.351Z,95.64
2023-05-13T03:40:23.715Z,95.75
2023-05-13T03:41:23.706Z,95.95
2023-05-13T03:42:21.931Z,96.05
2023-05-13T03:43:22.184Z,95.95
2023-05-13T03:44:23.306Z,95.95
2023-05-13T03:45:23.554Z,95.85
2023-05-13T03:46:23.724Z,95.64
2023-05-13T03:47:22.887Z,95.59
2023-05-13T03:48:22.125Z,95.59
2023-05-13T03:49:22.269Z,95.48
2023-05-13T03:50:22.694Z,95.59
2023-05-13T03:51:21.708Z,95.59
2023-05-13T03:52:22.884Z,95.69
2023-05-13T03:53:23.085Z,95.79
2023-05-13T03:54:23.318Z,95.79
2023-05-13T03:55:23.522Z,95.79
2023-05-13T03:56:21.837Z,95.89
2023-05-13T03:57:21.997Z,96.10
2023-05-13T03:58:22.202Z,96.20
2023-05-13T03:59:23.426Z,96.20
2023-05-13T04:00:21.914Z,96.30
2023-05-13T04:01:22.797Z,96.41
2023-05-13T04:02:23.186Z,96.51
2023-05-13T04:03:23.308Z,96.51
2023-05-13T04:04:22.535Z,96.46
2023-05-13T04:05:22.757Z,96.46
2023-05-13T04:06:22.927Z,96.36
2023-05-13T04:07:23.205Z,96.26
2023-05-13T04:08:23.387Z,96.26
2023-05-13T04:09:22.611Z,96.15
2023-05-13T04:10:22.092Z,96.15
2023-05-13T04:11:23.069Z,96.26
2023-05-13T04:12:22.378Z,96.36
2023-05-13T04:13:22.522Z,96.36
2023-05-13T04:14:21.756Z,96.36
2023-05-13T04:15:22.012Z,96.26
2023-05-13T04:16:23.262Z,96.26
2023-05-13T04:17:21.545Z,96.26
2023-05-13T04:18:21.750Z,96.26
2023-05-13T04:19:22.898Z,96.15
2023-05-13T04:20:22.472Z,96.15
2023-05-13T04:21:22.321Z,96.05
2023-05-13T04:22:22.578Z,96.05
2023-05-13T04:23:22.584Z,96.05
2023-05-13T04:24:22.105Z,96.05
2023-05-13T04:25:22.241Z,96.15
2023-05-13T04:26:22.453Z,96.20
2023-05-13T04:27:22.670Z,96.30
2023-05-13T04:28:22.971Z,96.41
2023-05-13T04:29:22.230Z,96.61
2023-05-13T04:30:21.525Z,96.41
2023-05-13T04:31:22.590Z,96.51
2023-05-13T04:32:22.855Z,96.45
2023-05-13T04:33:22.127Z,96.34
2023-05-13T04:34:21.351Z,96.34
2023-05-13T04:35:22.506Z,96.39
2023-05-13T04:36:22.738Z,96.39
2023-05-13T04:37:23.054Z,96.39
2023-05-13T04:38:21.322Z,96.49
2023-05-13T04:39:21.454Z,96.59
2023-05-13T04:40:22.853Z,96.84
2023-05-13T04:41:22.857Z,97.05
2023-05-13T04:42:23.116Z,97.25
2023-05-13T04:43:22.361Z,97.46
2023-05-13T04:44:22.649Z,97.56
2023-05-13T04:45:22.821Z,97.66
2023-05-13T04:46:21.043Z,97.77
2023-05-13T04:47:22.275Z,97.87
2023-05-13T04:48:22.511Z,97.97
2023-05-13T04:49:21.827Z,98.18
2023-05-13T04:50:22.130Z,98.18
2023-05-13T04:51:22.346Z,98.28
2023-05-13T04:52:21.477Z,98.28
2023-05-13T04:53:22.722Z,98.38
2023-05-13T04:54:20.936Z,98.38
2023-05-13T04:55:22.812Z,98.28
2023-05-13T04:56:22.365Z,98.28
2023-05-13T04:57:21.647Z,98.18
2023-05-13T04:58:20.840Z,98.18
2023-05-13T04:59:21.071Z,98.18
2023-05-13T05:00:21.418Z,98.13
2023-05-13T05:01:22.502Z,98.03
2023-05-13T05:02:21.769Z,98.03
2023-05-13T05:03:21.049Z,97.92
2023-05-13T05:04:22.172Z,97.92
2023-05-13T05:05:22.388Z,97.92
2023-05-13T05:06:21.667Z,97.82
2023-05-13T05:07:20.900Z,97.82
2023-05-13T05:08:21.102Z,97.82
2023-05-13T05:09:21.386Z,98.03
2023-05-13T05:10:21.803Z,98.29
2023-05-13T05:11:20.823Z,98.29
2023-05-13T05:12:22.032Z,98.49
2023-05-13T05:13:21.364Z,98.60
2023-05-13T05:14:20.597Z,98.70
2023-05-13T05:15:20.899Z,98.65
2023-05-13T05:16:21.117Z,98.75
2023-05-13T05:17:22.595Z,98.75
2023-05-13T05:18:20.663Z,98.65
2023-05-13T05:19:20.914Z,98.50
2023-05-13T05:20:21.347Z,98.50
2023-05-13T05:21:22.295Z,98.50
2023-05-13T05:22:20.584Z,98.50
2023-05-13T05:23:20.848Z,98.50
2023-05-13T05:24:21.014Z,98.50
2023-05-13T05:25:21.264Z,98.50
2023-05-13T05:26:20.481Z,98.46
2023-05-13T05:27:20.569Z,98.56
2023-05-13T05:28:20.754Z,98.56
2023-05-13T05:29:21.021Z,98.56
2023-05-13T05:30:22.427Z,98.56
2023-05-13T05:31:20.430Z,98.52
2023-05-13T05:32:20.740Z,98.52
2023-05-13T05:33:20.898Z,98.52
2023-05-13T05:34:21.061Z,98.52
2023-05-13T05:35:21.238Z,98.61
2023-05-13T05:36:20.410Z,98.72
2023-05-13T05:37:20.662Z,98.72
2023-05-13T05:38:20.832Z,98.77
2023-05-13T05:39:21.017Z,98.88
2023-05-13T05:40:21.779Z,98.98
2023-05-13T05:41:20.453Z,98.98
2023-05-13T05:42:20.649Z,98.98
2023-05-13T05:43:20.874Z,98.98
2023-05-13T05:44:21.068Z,98.98
2023-05-13T05:45:20.264Z,98.88
2023-05-13T05:46:20.571Z,98.88
2023-05-13T05:47:20.710Z,98.77
2023-05-13T05:48:20.968Z,98.77
2023-05-13T05:49:20.134Z,98.77
2023-05-13T05:50:20.632Z,98.73
2023-05-13T05:51:20.617Z,98.63
2023-05-13T05:52:21.040Z,98.63
2023-05-13T05:53:21.023Z,98.52
2023-05-13T05:54:20.246Z,98.43
2023-05-13T05:55:21.384Z,98.43
2023-05-13T05:56:20.642Z,98.32
2023-05-13T05:57:20.933Z,98.32
2023-05-13T05:58:21.082Z,98.22
2023-05-13T05:59:20.237Z,98.18
2023-05-13T06:00:21.517Z,98.07
2023-05-13T06:01:21.641Z,97.97
2023-05-13T06:02:20.921Z,97.77
2023-05-13T06:03:20.212Z,97.56
2023-05-13T06:04:20.259Z,97.46
2023-05-13T06:05:21.347Z,97.25
2023-05-13T06:06:20.641Z,96.95
2023-05-13T06:07:20.811Z,96.64
2023-05-13T06:08:19.935Z,96.50
2023-05-13T06:09:20.631Z,96.39
2023-05-13T06:10:20.528Z,96.19
2023-05-13T06:11:20.568Z,96.09
2023-05-13T06:12:20.776Z,96.09
2023-05-13T06:13:19.924Z,96.09
2023-05-13T06:14:21.082Z,96.09
2023-05-13T06:15:20.366Z,96.09
2023-05-13T06:16:20.609Z,96.09
2023-05-13T06:17:20.769Z,96.09
2023-05-13T06:18:19.947Z,96.15
2023-05-13T06:19:20.138Z,96.35
2023-05-13T06:20:20.536Z,96.45
2023-05-13T06:21:20.570Z,96.35
2023-05-13T06:22:19.715Z,96.41
2023-05-13T06:23:19.918Z,96.10
2023-05-13T06:24:20.119Z,95.49
2023-05-13T06:25:21.272Z,95.39
2023-05-13T06:26:20.519Z,95.39
2023-05-13T06:27:19.736Z,95.39
2023-05-13T06:28:19.912Z,95.29
2023-05-13T06:29:20.101Z,95.39
2023-05-13T06:30:20.458Z,95.29
2023-05-13T06:31:20.558Z,94.98
2023-05-13T06:32:19.701Z,94.57
2023-05-13T06:33:20.045Z,94.47
2023-05-13T06:34:20.088Z,94.57
2023-05-13T06:35:20.293Z,94.68
2023-05-13T06:36:20.521Z,94.68
2023-05-13T06:37:20.641Z,94.23
2023-05-13T06:38:20.863Z,94.23
2023-05-13T06:39:20.324Z,94.63
2023-05-13T06:40:20.653Z,94.23
2023-05-13T06:41:20.467Z,93.92
2023-05-13T06:42:20.666Z,93.92
2023-05-13T06:43:20.871Z,94.12
2023-05-13T06:44:21.082Z,94.32
2023-05-13T06:45:20.389Z,94.32
2023-05-13T06:46:20.516Z,94.28
2023-05-13T06:47:21.714Z,94.28
2023-05-13T06:48:19.981Z,94.38
2023-05-13T06:49:20.216Z,94.38
2023-05-13T06:50:19.536Z,94.38
2023-05-13T06:51:19.729Z,94.28
2023-05-13T06:52:20.832Z,94.24
2023-05-13T06:53:20.054Z,94.04
2023-05-13T06:54:20.317Z,93.93
2023-05-13T06:55:19.482Z,93.63
2023-05-13T06:56:19.698Z,93.22
2023-05-13T06:57:21.919Z,93.32
2023-05-13T06:58:21.147Z,93.43
2023-05-13T06:59:19.333Z,93.32
2023-05-13T07:00:20.761Z,93.22
2023-05-13T07:01:20.780Z,93.02
2023-05-13T07:02:19.991Z,92.82
2023-05-13T07:03:19.181Z,92.97
2023-05-13T07:04:20.343Z,92.87
2023-05-13T07:05:19.541Z,92.67
2023-05-13T07:06:19.766Z,92.57
2023-05-13T07:07:20.905Z,92.67
2023-05-13T07:08:20.122Z,92.87
2023-05-13T07:09:20.274Z,92.77
2023-05-13T07:10:20.677Z,93.07
2023-05-13T07:11:20.709Z,93.07
2023-05-13T07:12:19.898Z,93.28
2023-05-13T07:13:19.100Z,93.48
2023-05-13T07:14:19.876Z,93.59
2023-05-13T07:15:20.695Z,93.89
2023-05-13T07:16:20.625Z,93.89
2023-05-13T07:17:20.888Z,93.84
2023-05-13T07:18:19.074Z,93.74
2023-05-13T07:19:19.406Z,93.64
2023-05-13T07:20:20.606Z,93.24
2023-05-13T07:21:19.621Z,92.83
2023-05-13T07:22:19.795Z,92.83
2023-05-13T07:23:18.969Z,92.58
2023-05-13T07:24:19.185Z,92.58
2023-05-13T07:25:19.339Z,92.48
2023-05-13T07:26:19.586Z,91.67
2023-05-13T07:27:19.728Z,90.75
2023-05-13T07:28:18.998Z,90.61
2023-05-13T07:29:19.204Z,91.22
2023-05-13T07:30:20.659Z,91.42
2023-05-13T07:31:20.651Z,91.02
2023-05-13T07:32:20.752Z,91.32
2023-05-13T07:33:18.852Z,91.63
2023-05-13T07:34:20.019Z,91.52
2023-05-13T07:35:20.365Z,92.24
2023-05-13T07:36:20.403Z,92.33
2023-05-13T07:37:20.617Z,90.41
2023-05-13T07:38:19.878Z,90.88
2023-05-13T07:39:19.999Z,89.55
2023-05-13T07:40:19.348Z,88.13
2023-05-13T07:41:20.381Z,88.23
2023-05-13T07:42:19.608Z,89.15
2023-05-13T07:43:19.728Z,89.51
2023-05-13T07:44:19.322Z,89.11
2023-05-13T07:45:20.258Z,88.80
2023-05-13T07:46:20.308Z,89.21
2023-05-13T07:47:19.596Z,89.25
2023-05-13T07:48:18.680Z,89.76
2023-05-13T07:49:18.912Z,89.15
2023-05-13T07:50:20.069Z,89.35
2023-05-13T07:51:20.266Z,89.92
2023-05-13T07:52:19.465Z,88.80
2023-05-13T07:53:19.795Z,88.09
2023-05-13T07:54:18.874Z,88.80
2023-05-13T07:55:19.074Z,87.99
2023-05-13T07:56:19.264Z,87.38
2023-05-13T07:57:19.342Z,87.28
2023-05-13T07:58:18.595Z,87.89
2023-05-13T07:59:18.752Z,87.89
2023-05-13T08:00:18.900Z,87.48
2023-05-13T08:01:20.079Z,87.45
2023-05-13T08:02:20.325Z,87.45
2023-05-13T08:03:20.134Z,87.85
2023-05-13T08:04:19.737Z,88.11
2023-05-13T08:05:19.979Z,86.29
2023-05-13T08:06:19.017Z,85.88
2023-05-13T08:07:20.146Z,85.38
2023-05-13T08:08:18.385Z,85.17
2023-05-13T08:09:19.523Z,84.83
2023-05-13T08:10:18.687Z,84.53
2023-05-13T08:11:19.815Z,83.82
2023-05-13T08:12:20.030Z,83.11
2023-05-13T08:13:18.205Z,83.21
2023-05-13T08:14:18.434Z,83.82
2023-05-13T08:15:18.606Z,81.15
2023-05-13T08:16:18.811Z,80.94
2023-05-13T08:17:18.989Z,81.45
2023-05-13T08:18:18.152Z,83.27
2023-05-13T08:19:18.429Z,83.54
2023-05-13T08:20:18.723Z,81.31
2023-05-13T08:21:18.710Z,81.41
2023-05-13T08:22:18.917Z,81.11
2023-05-13T08:23:18.106Z,81.01
2023-05-13T08:24:18.338Z,80.10
2023-05-13T08:25:18.605Z,80.00
2023-05-13T08:26:18.754Z,80.80
2023-05-13T08:27:20.003Z,81.01
2023-05-13T08:28:18.173Z,79.90
2023-05-13T08:29:18.390Z,78.85
2023-05-13T08:30:19.637Z,78.14
2023-05-13T08:31:18.894Z,78.34
2023-05-13T08:32:18.096Z,78.85
2023-05-13T08:33:18.247Z,76.52
2023-05-13T08:34:18.467Z,76.52
2023-05-13T08:35:18.640Z,77.23
2023-05-13T08:36:18.871Z,78.95
2023-05-13T08:37:18.109Z,78.95
2023-05-13T08:38:18.314Z,77.03
2023-05-13T08:39:18.441Z,77.53
2023-05-13T08:40:18.651Z,78.85
2023-05-13T08:41:21.193Z,78.75
2023-05-13T08:42:17.959Z,78.81
2023-05-13T08:43:18.206Z,79.62
2023-05-13T08:44:18.321Z,79.82
2023-05-13T08:45:18.530Z,76.69
2023-05-13T08:46:19.665Z,76.48
2023-05-13T08:47:17.864Z,77.50
2023-05-13T08:48:18.092Z,77.80
2023-05-13T08:49:18.736Z,76.69
2023-05-13T08:50:18.407Z,76.35
2023-05-13T08:51:18.595Z,76.86
2023-05-13T08:52:17.735Z,77.66
2023-05-13T08:53:17.963Z,77.02
2023-05-13T08:54:18.152Z,75.81
2023-05-13T08:55:18.384Z,74.87
2023-05-13T08:56:19.469Z,75.57
2023-05-13T08:57:18.635Z,75.47
2023-05-13T08:58:18.804Z,75.03
2023-05-13T08:59:18.044Z,73.52
2023-05-13T09:00:19.986Z,74.52
2023-05-13T09:01:18.439Z,74.12
2023-05-13T09:02:18.545Z,75.63
2023-05-13T09:03:17.650Z,76.24
2023-05-13T09:04:18.779Z,76.71
2023-05-13T09:05:18.089Z,75.10
2023-05-13T09:06:18.152Z,71.50
2023-05-13T09:07:18.331Z,71.70
2023-05-13T09:08:18.448Z,73.11
2023-05-13T09:09:17.577Z,71.20
2023-05-13T09:10:17.736Z,71.91
2023-05-13T09:11:17.908Z,70.09
2023-05-13T09:12:18.048Z,70.79
2023-05-13T09:13:18.495Z,72.20
2023-05-13T09:14:18.384Z,71.20
2023-05-13T09:15:17.533Z,71.30
2023-05-13T09:16:18.719Z,70.69
2023-05-13T09:17:17.836Z,70.79
2023-05-13T09:18:19.118Z,72.20
2023-05-13T09:19:18.356Z,72.81
2023-05-13T09:20:18.382Z,73.42
2023-05-13T09:21:17.492Z,74.32
2023-05-13T09:22:17.738Z,73.62
2023-05-13T09:23:17.881Z,73.62
2023-05-13T09:24:18.051Z,73.11
2023-05-13T09:25:18.705Z,71.91
2023-05-13T09:26:17.293Z,71.91
2023-05-13T09:27:18.425Z,71.47
2023-05-13T09:28:17.642Z,72.27
2023-05-13T09:29:17.841Z,71.87
2023-05-13T09:30:17.910Z,71.23
2023-05-13T09:31:18.119Z,71.44
2023-05-13T09:32:17.178Z,70.73
2023-05-13T09:33:18.397Z,68.41
2023-05-13T09:34:18.480Z,68.71
2023-05-13T09:35:18.829Z,68.11
2023-05-13T09:36:18.809Z,68.01
2023-05-13T09:37:18.066Z,68.91
2023-05-13T09:38:18.127Z,68.71
2023-05-13T09:39:18.273Z,69.72
2023-05-13T09:40:18.469Z,70.90
2023-05-13T09:41:18.600Z,71.00
2023-05-13T09:42:17.814Z,70.06
2023-05-13T09:43:18.088Z,68.65
2023-05-13T09:44:18.098Z,67.74
2023-05-13T09:45:17.308Z,68.71
2023-05-13T09:46:17.552Z,66.71
2023-05-13T09:47:17.685Z,66.71
2023-05-13T09:48:17.795Z,66.60
2023-05-13T09:49:17.972Z,66.71
2023-05-13T09:50:18.108Z,66.40
2023-05-13T09:51:17.245Z,66.30
2023-05-13T09:52:17.436Z,65.39
2023-05-13T09:53:17.596Z,67.21
2023-05-13T09:54:17.758Z,66.71
2023-05-13T09:55:17.180Z,67.31
2023-05-13T09:56:17.069Z,67.98
2023-05-13T09:57:17.170Z,67.78
2023-05-13T09:58:18.286Z,67.58
2023-05-13T09:59:17.487Z,68.18
2023-05-13T10:00:28.967Z,67.58
2023-05-13T10:01:18.794Z,67.65
2023-05-13T10:02:16.926Z,67.14
2023-05-13T10:03:17.063Z,68.55
2023-05-13T10:04:18.335Z,66.37
2023-05-13T10:05:17.365Z,67.65
2023-05-13T10:06:17.565Z,65.87
2023-05-13T10:07:17.677Z,65.97
2023-05-13T10:08:16.776Z,64.66
2023-05-13T10:09:16.964Z,66.37
2023-05-13T10:10:17.113Z,65.16
2023-05-13T10:11:17.294Z,65.67
2023-05-13T10:12:17.548Z,66.34
2023-05-13T10:13:17.657Z,66.74
2023-05-13T10:14:16.760Z,66.94
2023-05-13T10:15:16.933Z,66.64
2023-05-13T10:16:18.216Z,66.74
2023-05-13T10:17:17.279Z,66.64
2023-05-13T10:18:17.554Z,65.84
2023-05-13T10:19:16.655Z,66.20
2023-05-13T10:20:17.764Z,63.93
2023-05-13T10:21:16.958Z,63.73
2023-05-13T10:22:17.029Z,64.63
2023-05-13T10:23:17.204Z,65.13
2023-05-13T10:24:17.373Z,65.50
2023-05-13T10:25:17.490Z,62.29
2023-05-13T10:26:18.690Z,62.19
2023-05-13T10:27:16.773Z,61.69
2023-05-13T10:28:16.897Z,64.10
2023-05-13T10:29:18.030Z,64.07
2023-05-13T10:30:17.342Z,63.36
2023-05-13T10:31:17.447Z,65.54
2023-05-13T10:32:18.520Z,58.62
2023-05-13T10:33:16.714Z,59.79
2023-05-13T10:34:16.807Z,59.89
2023-05-13T10:35:17.911Z,59.26
2023-05-13T10:36:18.283Z,56.85
2023-05-13T10:37:17.285Z,58.06
2023-05-13T10:38:16.395Z,56.26
2023-05-13T10:39:16.577Z,55.65
2023-05-13T10:40:17.022Z,56.43
2023-05-13T10:41:16.838Z,58.13
2023-05-13T10:42:17.006Z,60.01
2023-05-13T10:43:18.184Z,58.50
2023-05-13T10:44:16.251Z,56.67
2023-05-13T10:45:16.378Z,61.41
2023-05-13T10:46:16.572Z,62.01
2023-05-13T10:47:16.727Z,61.07
2023-05-13T10:48:16.903Z,62.10
2023-05-13T10:49:16.938Z,61.33
2023-05-13T10:50:17.141Z,63.67
2023-05-13T10:51:17.272Z,63.06
2023-05-13T10:52:16.456Z,62.29
2023-05-13T10:53:16.607Z,63.02
2023-05-13T10:54:16.754Z,65.53
2023-05-13T10:55:16.910Z,66.67
2023-05-13T10:56:17.138Z,68.38
2023-05-13T10:57:17.794Z,68.28
2023-05-13T10:58:16.461Z,70.53
2023-05-13T10:59:16.588Z,72.47
2023-05-13T11:00:16.992Z,73.98
2023-05-13T11:01:17.077Z,79.11
2023-05-13T11:43:43.177Z,82.59
2023-05-13T11:44:42.162Z,82.79
2023-05-13T11:45:44.793Z,81.37
2023-05-13T11:46:44.055Z,81.67
2023-05-13T11:47:45.234Z,81.46
2023-05-13T11:48:43.810Z,80.72
2023-05-13T11:49:43.113Z,81.12
2023-05-13T11:50:42.194Z,82.14
2023-05-13T11:51:42.372Z,81.02
2023-05-13T11:52:42.558Z,79.80
2023-05-13T11:53:42.739Z,81.49
2023-05-13T11:54:41.908Z,80.98
2023-05-13T11:55:42.955Z,84.23
2023-05-13T11:56:43.236Z,85.25
2023-05-13T11:57:43.365Z,86.57
2023-05-13T11:58:42.633Z,86.07
2023-05-13T11:59:48.328Z,87.38
2023-05-13T12:00:45.823Z,85.05
2023-05-13T12:01:42.211Z,84.78
2023-05-13T12:02:42.603Z,85.19
2023-05-13T12:03:43.627Z,83.26
2023-05-13T12:04:41.928Z,84.84
2023-05-13T12:05:43.184Z,84.64
2023-05-13T12:06:43.220Z,84.54
2023-05-13T12:07:43.530Z,86.07
2023-05-13T12:08:41.784Z,88.40
2023-05-13T12:09:41.966Z,90.13
2023-05-13T12:10:42.161Z,90.80
2023-05-13T12:11:42.340Z,90.70
2023-05-13T12:12:42.577Z,88.62
2023-05-13T12:13:42.705Z,88.52
2023-05-13T12:14:41.832Z,86.19
2023-05-13T12:15:43.030Z,85.88
2023-05-13T12:16:42.514Z,87.40
2023-05-13T12:17:43.456Z,86.35
2023-05-13T12:18:43.513Z,85.84
2023-05-13T12:19:41.708Z,86.91
2023-05-13T12:20:41.828Z,86.47
2023-05-13T12:21:41.993Z,86.37
2023-05-13T12:22:42.209Z,85.01
2023-05-13T12:23:42.425Z,83.90
2023-05-13T12:24:42.485Z,84.50
2023-05-13T12:25:41.770Z,87.04
2023-05-13T12:26:42.737Z,87.14
2023-05-13T12:27:41.970Z,85.01
2023-05-13T12:28:43.119Z,84.14
2023-05-13T12:29:42.357Z,85.25
2023-05-13T12:30:41.417Z,83.83
2023-05-13T12:31:41.666Z,84.24
2023-05-13T12:32:43.759Z,82.31
2023-05-13T12:33:41.932Z,84.24
2023-05-13T12:34:42.100Z,85.46
2023-05-13T12:35:43.319Z,83.12
2023-05-13T12:36:41.420Z,84.95
2023-05-13T12:37:41.566Z,85.72
2023-05-13T12:38:42.743Z,84.04
2023-05-13T12:39:41.920Z,84.70
2023-05-13T12:40:42.110Z,84.41
2023-05-13T12:41:43.270Z,84.61
2023-05-13T12:42:41.416Z,85.21
2023-05-13T12:43:42.582Z,85.99
2023-05-13T12:44:42.740Z,82.84
2023-05-13T12:45:43.978Z,82.20
2023-05-13T12:46:42.190Z,81.65
2023-05-13T12:47:42.393Z,83.98
2023-05-13T12:48:42.445Z,79.43
2023-05-13T12:49:42.701Z,77.71
2023-05-13T12:50:42.751Z,78.52
2023-05-13T12:51:42.874Z,81.55
2023-05-13T12:52:43.090Z,78.11
2023-05-13T12:53:41.246Z,79.33
2023-05-13T12:54:42.310Z,77.64
2023-05-13T12:55:42.517Z,79.16
2023-05-13T12:56:41.694Z,78.35
2023-05-13T12:57:41.828Z,78.45
2023-05-13T12:58:43.011Z,77.64
2023-05-13T12:59:42.142Z,77.17
2023-05-13T13:00:42.339Z,78.69
2023-05-13T13:01:43.032Z,79.30
2023-05-13T13:02:41.694Z,78.08
2023-05-13T13:03:42.946Z,78.08
2023-05-13T13:04:42.093Z,80.01
2023-05-13T13:05:41.091Z,82.14
2023-05-13T13:06:42.232Z,82.03
2023-05-13T13:07:41.428Z,80.72
2023-05-13T13:08:41.581Z,81.52
2023-05-13T13:09:41.768Z,81.09
2023-05-13T13:10:42.883Z,80.07
2023-05-13T13:11:41.981Z,80.24
2023-05-13T13:12:41.270Z,76.76
2023-05-13T13:13:41.452Z,77.17
2023-05-13T13:14:41.547Z,76.52
2023-05-13T13:15:41.757Z,75.92
2023-05-13T13:16:41.901Z,77.80
2023-05-13T13:17:41.329Z,74.97
2023-05-13T13:18:42.265Z,75.88
2023-05-13T13:19:41.363Z,74.26
2023-05-13T13:20:41.582Z,74.87
2023-05-13T13:21:41.716Z,73.79
2023-05-13T13:22:40.809Z,74.16
2023-05-13T13:23:40.980Z,74.90
2023-05-13T13:24:41.137Z,74.90
2023-05-13T13:25:41.287Z,73.90
2023-05-13T13:26:42.416Z,75.81
2023-05-13T13:27:42.570Z,74.10
2023-05-13T13:28:41.690Z,74.97
2023-05-13T13:29:41.808Z,74.37
2023-05-13T13:30:41.053Z,74.73
2023-05-13T13:31:42.161Z,73.18
2023-05-13T13:32:41.406Z,70.46
2023-05-13T13:33:41.518Z,72.44
2023-05-13T13:34:42.611Z,76.34